Login

fabiogobbo
1 activity; - Last training unit 17/03/2014
17/03/2014 Show to everybody Allenamento Via Mario Visentin, Sambughe 18.81 87 01:00:21 18.7 Km\h cannondale
16/03/2014 Show to everybody Allenamento Via Mario Visentin, Sambughe 40.49 95 02:42:52 14.92 Km\h cannondale
14/03/2014 Show to everybody Allenamento Via Mario Visentin, Sambughe 49.54 207 02:15:43 21.9 Km\h cannondale
13/03/2014 Show to everybody Allenamento Via Mario Visentin, Sambughe 3.73 14 00:11:14 19.91 Km\h cannondale
13/03/2014 Show to everybody Allenamento Via Mario Visentin, Sambughe 109.61 1170 04:29:59 24.36 Km\h cannondale
05/03/2014 Show to everybody Allenamento Via Mario Visentin, Sambughe 39.3 123 01:49:35 21.52 Km\h cannondale
28/02/2014 Show to everybody Allenamento Via Mario Visentin, Sambughe 40.61 208 01:36:16 25.31 Km\h cannondale
23/02/2014 Show to everybody Allenamento Via Mario Visentin, Sambughe 23.02 191 00:56:07 24.62 Km\h cannondale
18/02/2014 Show to everybody Allenamento Via Sambughè, Sambughe 13.22 78 00:38:07 20.81 Km\h cannondale
13/02/2014 Show to everybody Allenamento Via Mario Visentin, Sambughe 23.19 129 00:55:25 25.11 Km\h cannondale
12/02/2014 Show to everybody Allenamento Via Mario Visentin, Sambughe 32.94 87 01:23:47 23.59 Km\h cannondale
16/01/2014 Show to everybody Allenamento Via Mario Visentin, Sambughe 37.06 111 01:30:50 24.48 Km\h cannondale
15/08/2012 Show to everybody Allenamento 15-08-12 alle 09:12 7.62 5 00:27:55 16.38 Km\h
15/08/2012 Show to everybody Allenamento 15-08-12 alle 04:58 76.66 389 03:12:21 23.91 Km\h
12/08/2012 Show to everybody Allenamento 12-08-12 alle 06:54 40.44 23 01:55:05 21.08 Km\h
09/08/2012 Show to everybody Allenamento 09-08-12 alle 03:30 155.41 2438 06:41:43 23.21 Km\h
08/08/2012 Show to everybody Allenamento 08-08-12 alle 06:25 26.85 18 01:05:20 24.66 Km\h
06/08/2012 Show to everybody Allenamento 06-08-12 alle 06:22 23.33 14 01:08:12 20.52 Km\h
05/08/2012 Show to everybody Allenamento 05-08-12 alle 03:45 84.42 784 03:30:04 24.11 Km\h
03/08/2012 Show to everybody Allenamento 03-08-12 alle 03:46 120.88 654 04:24:05 27.46 Km\h
31/07/2012 Show to everybody giro dei rifugi a Cortina d\\\'Ampezzo 62.93 2016 05:10:17 12.17 Km\h
29/07/2012 Show to everybody Allenamento 29-07-12 alle 04:48 136.66 1547 05:30:27 24.81 Km\h
27/07/2012 Show to everybody Allenamento 27-07-12 alle 09:54 1.65 267 00:36:55 2.69 Km\h
26/07/2012 Show to everybody Allenamento 26-07-12 alle 07:08 55.18 1980 03:22:28 16.35 Km\h
25/07/2012 Show to everybody Allenamento 25-07-12 alle 06:19 81.61 1305 05:30:15 14.83 Km\h
23/07/2012 Show to everybody Allenamento 23-07-12 alle 12:30 17.99 101 01:27:06 12.39 Km\h
22/07/2012 Show to everybody Allenamento 22-07-12 alle 06:51 37.69 1596 03:06:26 12.13 Km\h
20/07/2012 Show to everybody Allenamento 20-07-12 alle 04:01 144.37 1692 06:13:38 23.18 Km\h
18/07/2012 Show to everybody Allenamento 18-07-12 alle 06:57 12.27 3 01:14:41 9.86 Km\h
17/07/2012 Show to everybody Allenamento 17-07-12 alle 06:47 42.66 46 01:58:41 21.57 Km\h
15/07/2012 Show to everybody Allenamento 15-07-12 alle 07:33 64.81 68 02:38:47 24.49 Km\h
14/07/2012 Show to everybody Allenamento 14-07-12 alle 07:00 20.67 83 01:04:56 19.1 Km\h
13/07/2012 Show to everybody Allenamento 13-07-12 alle 08:09 7.77 90 00:45:46 10.18 Km\h
12/07/2012 Show to everybody Allenamento 12-07-12 alle 06:57 26.55 15 01:21:35 19.53 Km\h
11/07/2012 Show to everybody Allenamento 11-07-12 alle 05:46 32.75 26 01:51:39 17.6 Km\h
10/07/2012 Show to everybody Allenamento 10-07-12 alle 06:39 35.02 21 02:19:44 15.04 Km\h
07/07/2012 Show to everybody Allenamento 07-07-12 alle 14:45 35.54 61 01:25:48 24.86 Km\h
04/07/2012 Show to everybody Allenamento 04-07-12 alle 10:31 78.24 589 03:26:08 22.77 Km\h
01/07/2012 Show to everybody Allenamento 01-07-12 alle 05:55 32.42 29 01:24:02 23.15 Km\h
29/06/2012 Show to everybody Allenamento 29-06-12 alle 06:25 18.8 17 00:58:33 19.27 Km\h
21/06/2012 Show to everybody Allenamento 21-06-12 alle 13:58 50.54 1015 03:00:35 16.79 Km\h
16/06/2012 Show to everybody Allenamento 16-06-12 alle 08:58 25.98 28 02:10:25 11.95 Km\h
15/06/2012 Show to everybody Allenamento 15-06-12 alle 15:16 23.74 19 01:11:18 19.98 Km\h
13/06/2012 Show to everybody Allenamento 13-06-12 alle 06:35 23.72 1551 02:15:10 10.53 Km\h
11/06/2012 Show to everybody Allenamento 11-06-12 alle 13:05 46.91 1391 02:40:16 17.56 Km\h
11/06/2012 Show to everybody Allenamento 11-06-12 alle 08:19 13.81 937 01:21:29 10.17 Km\h
06/06/2012 Show to everybody Allenamento 06-06-12 alle 05:26 30.47 46 01:24:52 21.54 Km\h
05/06/2012 Show to everybody Allenamento 05-06-12 alle 05:32 71.96 556 03:02:39 23.64 Km\h
02/06/2012 Show to everybody Allenamento 02-06-12 alle 04:56 33.13 90 01:16:39 25.93 Km\h
31/05/2012 Show to everybody Allenamento 31-05-12 alle 05:46 17.13 6 00:43:57 23.38 Km\h
30/05/2012 Show to everybody Allenamento 30-05-12 alle 05:42 69.31 74 02:42:45 25.55 Km\h
27/05/2012 Show to everybody Allenamento 27-05-12 alle 06:35 33.22 18 01:37:33 20.43 Km\h
23/05/2012 Show to everybody Allenamento 23-05-12 alle 06:30 116.22 3199 06:26:09 18.06 Km\h
13/05/2012 Show to everybody Allenamento 13-05-12 alle 13:13 32.91 46 01:24:06 23.48 Km\h
12/05/2012 Show to everybody Allenamento 12-05-12 alle 08:06 22.04 14 01:23:19 15.87 Km\h
09/05/2012 Show to everybody Allenamento 09-05-12 alle 06:15 111.17 1145 04:27:06 24.97 Km\h
08/05/2012 Show to everybody Allenamento 08-05-12 alle 13:16 16.54 16 01:08:54 14.4 Km\h
07/05/2012 Show to everybody Allenamento 07-05-12 alle 09:08 32.15 43 01:30:25 21.34 Km\h
06/05/2012 Show to everybody Allenamento 06-05-12 alle 06:35 102.16 1606 03:30:12 29.16 Km\h
03/05/2012 Show to everybody Allenamento 03-05-12 alle 06:32 48.86 58 01:54:14 25.66 Km\h
28/04/2012 Show to everybody Allenamento 28-04-12 alle 08:41 19.06 15 00:53:00 21.58 Km\h
24/04/2012 Show to everybody Allenamento 24-04-12 alle 12:11 66.19 84 02:42:28 24.45 Km\h
23/04/2012 Show to everybody Allenamento 23-04-12 alle 13:07 48.67 37 02:11:19 22.24 Km\h
15/04/2012 Show to everybody Allenamento 15-04-12 alle 08:30 37.95 881 02:46:09 13.7 Km\h
12/04/2012 Show to everybody Allenamento 12-04-12 alle 10:31 72.31 574 03:08:59 22.96 Km\h
30/03/2012 Show to everybody Allenamento 30-03-12 alle 12:15 70.51 543 03:14:38 21.74 Km\h
27/03/2012 Show to everybody Allenamento 27-03-12 alle 13:03 56.79 60 02:23:27 23.75 Km\h
26/03/2012 Show to everybody Allenamento 26-03-12 alle 16:35 16.8 21 00:53:42 18.77 Km\h
24/03/2012 Show to everybody Allenamento 24-03-12 alle 08:56 27.71 49 01:12:18 22.99 Km\h
23/03/2012 Show to everybody Allenamento 23-03-12 alle 13:25 88.21 1195 03:44:13 23.6 Km\h
22/03/2012 Show to everybody Allenamento 22-03-12 alle 16:22 25.71 10 01:09:34 22.17 Km\h
20/03/2012 Show to everybody Allenamento 20-03-12 alle 08:55 51.49 165 01:57:15 26.35 Km\h
17/03/2012 Show to everybody Allenamento 17-03-12 alle 13:06 18.47 10 00:48:26 22.88 Km\h
15/03/2012 Show to everybody Allenamento 15-03-12 alle 07:31 53.98 68 02:20:39 23.03 Km\h
13/03/2012 Show to everybody Allenamento 13-03-12 alle 07:04 69.38 109 02:58:55 23.27 Km\h
11/03/2012 Show to everybody Allenamento 11-03-12 alle 16:37 37.74 6 01:21:15 27.87 Km\h
10/03/2012 Show to everybody Allenamento 10-03-12 alle 13:52 27.05 28 01:28:45 18.29 Km\h
07/03/2012 Show to everybody Allenamento 07-03-12 alle 13:08 54.55 30 02:24:46 22.61 Km\h
06/03/2012 Show to everybody Allenamento 06-03-12 alle 14:19 40.92 59 01:58:25 20.73 Km\h
25/02/2012 Show to everybody Allenamento 25-02-12 alle 13:54 40.57 65 01:56:38 20.87 Km\h
24/02/2012 Show to everybody Allenamento 24-02-12 alle 14:12 29.62 26 01:16:56 23.1 Km\h
Training units 0
Kilometers 0 Km
Vertical gain 0 mt
Hours of riding 00:00:00
Average speed 0 Km/h
average HR 101
Points 49
Live Tracking »

cannondale 19:30:16 431.53 Km

 
If you stop following this users you will not be able to compare your trainings with his

Now you follow this users and you can compare your trainings


MTB-Forum.it | 2012-2019 Training Camp v.1.6 rev 05